Time;durP1;ratioP1;P1;durP2;ratioP2;P2;SDS_P1;SDS_P2;PMS_P1;PMS_P2;Temp;Humidity;BMP_temperature;BMP_pressure;BME280_temperature;BME280_humidity;BME280_pressure;Samples;Min_cycle;Max_cycle;Signal;HPM_P1;HPM_P2
2020/12/21 05:01:46;;;;;;;22.05;10.98;;;;;;;3.48;77.16;100807.25;5481170;22;20387;-54
2020/12/21 05:04:14;;;;;;;20.42;11.32;;;;;;;3.42;77.93;100814.09;5007216;28;20042;-56
2020/12/21 05:06:49;;;;;;;19.60;11.27;;;;;;;3.38;77.79;100817.22;5007927;28;20184;-54
2020/12/21 05:09:14;;;;;;;20.58;11.18;;;;;;;3.53;77.27;100821.00;5008471;28;20046;-55
2020/12/21 05:11:56;;;;;;;22.10;11.90;;;;;;;3.34;77.96;100818.56;5008085;28;20038;-55
2020/12/21 05:14:32;;;;;;;;;;;;;;;3.23;77.88;100809.78;4992648;28;20516;-54
2020/12/21 05:17:13;;;;;;;18.70;10.50;;;;;;;3.05;78.49;100810.81;4988866;28;19943;-54
2020/12/21 05:19:39;;;;;;;22.15;11.13;;;;;;;3.07;79.32;100816.84;4989266;28;20173;-55
2020/12/21 05:22:15;;;;;;;23.63;12.45;;;;;;;3.04;78.79;100825.19;5006407;28;20061;-55
2020/12/21 05:24:41;;;;;;;23.17;11.63;;;;;;;3.04;79.22;100828.69;4991567;28;20410;-54
2020/12/21 05:27:17;;;;;;;26.95;13.90;;;;;;;2.99;78.80;100823.00;5002589;28;20047;-56
2020/12/21 05:29:53;;;;;;;24.90;12.93;;;;;;;2.96;79.31;100811.75;4993442;28;20037;-55
2020/12/21 05:32:20;;;;;;;22.25;13.07;;;;;;;2.91;79.79;100810.38;4990077;28;20514;-55
2020/12/21 05:34:46;;;;;;;23.55;12.07;;;;;;;2.92;79.65;100813.91;4986044;28;20041;-56
2020/12/21 05:37:21;;;;;;;22.65;12.43;;;;;;;2.87;79.71;100822.41;4976002;28;20475;-54
2020/12/21 05:39:51;;;;;;;22.38;12.50;;;;;;;2.92;79.75;100827.25;4989192;28;20116;-55
2020/12/21 05:42:19;;;;;;;;;;;;;;;2.96;79.74;100820.63;4991286;28;20453;-55
2020/12/21 05:45:04;;;;;;;23.83;13.43;;;;;;;2.96;79.31;100822.44;5006178;28;19995;-55
2020/12/21 05:47:30;;;;;;;24.60;12.77;;;;;;;3.01;79.04;100828.16;5006353;28;20719;-55
2020/12/21 05:50:02;;;;;;;24.55;12.48;;;;;;;3.08;79.79;100827.41;4993679;28;20061;-54
2020/12/21 05:52:32;;;;;;;20.73;12.00;;;;;;;3.12;78.77;100828.75;4988868;28;20701;-53
2020/12/21 05:55:11;;;;;;;22.23;11.88;;;;;;;3.15;78.46;100824.94;4974582;28;20529;-54
2020/12/21 05:57:39;;;;;;;21.73;12.32;;;;;;;3.20;78.83;100826.16;4987706;28;20633;-53
2020/12/21 06:00:07;;;;;;;23.95;13.05;;;;;;;3.39;77.70;100827.75;5005316;28;20064;-53
2020/12/21 06:02:35;;;;;;;22.25;13.40;;;;;;;3.33;78.32;100822.22;4990186;28;20053;-55
2020/12/21 06:05:08;;;;;;;24.45;13.20;;;;;;;3.35;77.82;100829.06;4973059;28;20483;-53
2020/12/21 06:07:37;;;;;;;26.40;13.75;;;;;;;3.46;78.34;100828.00;4994256;28;20175;-54
2020/12/21 06:10:07;;;;;;;22.48;12.57;;;;;;;3.67;77.08;100823.09;5004853;28;20129;-54
2020/12/21 06:12:50;;;;;;;23.97;11.97;;;;;;;3.57;77.72;100825.06;5003878;28;20034;-54
2020/12/21 06:15:24;;;;;;;24.13;12.30;;;;;;;3.55;77.82;100822.53;4987594;28;20048;-55
2020/12/21 06:17:50;;;;;;;25.48;12.32;;;;;;;3.65;77.13;100827.75;4988614;28;20045;-55
2020/12/21 06:20:15;;;;;;;25.90;12.20;;;;;;;3.58;76.70;100827.53;5003047;28;20091;-53
2020/12/21 06:22:40;;;;;;;27.52;14.20;;;;;;;3.54;77.95;100831.53;5002087;28;20572;-53
2020/12/21 06:25:07;;;;;;;24.48;14.98;;;;;;;3.90;80.14;100818.03;4987444;28;20538;-55
2020/12/21 06:27:42;;;;;;;25.10;13.07;;;;;;;3.75;76.21;100823.13;4989540;28;20053;-53
2020/12/21 06:30:11;;;;;;;19.60;11.02;;;;;;;3.64;76.08;100826.06;4969670;28;20545;-55
2020/12/21 06:32:37;;;;;;;24.15;12.60;;;;;;;3.64;75.78;100820.72;4986239;28;20034;-54
2020/12/21 06:35:16;;;;;;;22.63;12.38;;;;;;;3.61;75.86;100826.38;4986799;28;20044;-55
2020/12/21 06:37:55;;;;;;;21.88;11.75;;;;;;;3.54;76.52;100828.03;4992858;28;20288;-53
2020/12/21 06:40:29;;;;;;;20.98;11.15;;;;;;;3.57;75.85;100836.59;4991615;28;20040;-53
2020/12/21 06:42:54;;;;;;;20.23;10.75;;;;;;;3.53;76.61;100832.53;5007701;28;20497;-56
2020/12/21 06:45:20;;;;;;;17.95;10.15;;;;;;;3.64;76.42;100831.44;4991661;28;20064;-55
2020/12/21 06:47:45;;;;;;;19.30;10.70;;;;;;;3.49;76.21;100831.16;4988971;28;20049;-54
2020/12/21 06:50:12;;;;;;;20.90;10.68;;;;;;;3.44;76.22;100830.81;5008771;28;20387;-54
2020/12/21 06:52:41;;;;;;;22.48;12.20;;;;;;;3.49;76.80;100827.66;5006103;28;20034;-55
2020/12/21 06:55:07;;;;;;;18.73;9.60;;;;;;;3.45;76.77;100828.97;4989778;28;20076;-57
2020/12/21 06:57:33;;;;;;;20.48;10.80;;;;;;;3.58;76.35;100834.72;5005788;28;20104;-55
2020/12/21 06:59:59;;;;;;;19.98;11.52;;;;;;;3.80;76.06;100836.88;4990050;28;20048;-54
2020/12/21 07:02:25;;;;;;;23.27;11.38;;;;;;;3.97;75.70;100838.59;4990879;28;20132;-53
2020/12/21 07:04:50;;;;;;;20.23;11.35;;;;;;;3.82;75.49;100839.34;4989070;28;20128;-52
2020/12/21 07:07:17;;;;;;;24.33;11.90;;;;;;;3.90;75.54;100837.59;5003184;28;20076;-53
2020/12/21 07:09:42;;;;;;;23.48;11.80;;;;;;;3.76;75.28;100837.34;5004451;28;20041;-53
2020/12/21 07:12:09;;;;;;;20.25;11.15;;;;;;;3.67;75.61;100851.66;5004651;28;20092;-52
2020/12/21 07:14:39;;;;;;;22.98;12.02;;;;;;;3.75;76.79;100847.19;4991866;28;20033;-53
2020/12/21 07:17:11;;;;;;;25.27;13.10;;;;;;;3.81;75.85;100853.72;4989095;28;20050;-53
2020/12/21 07:19:42;;;;;;;24.05;13.85;;;;;;;3.69;75.33;100860.38;4987234;28;20124;-53
2020/12/21 07:22:08;;;;;;;24.58;13.18;;;;;;;3.59;75.59;100865.81;5004749;28;20124;-53
2020/12/21 07:24:34;;;;;;;27.67;13.30;;;;;;;3.57;75.25;100859.81;4999224;28;20048;-53
2020/12/21 07:27:00;;;;;;;26.88;13.73;;;;;;;3.62;75.50;100860.16;5000969;28;20048;-54
2020/12/21 07:29:39;;;;;;;27.52;13.88;;;;;;;3.52;75.74;100862.09;4988673;28;20029;-53
2020/12/21 07:32:07;;;;;;;21.55;11.82;;;;;;;3.64;76.29;100861.69;5006299;28;20044;-53
2020/12/21 07:34:37;;;;;;;24.65;13.85;;;;;;;3.51;75.98;100865.75;5005299;28;20041;-52
2020/12/21 07:37:10;;;;;;;23.90;13.23;;;;;;;3.47;75.66;100875.09;5022006;28;20132;-53
2020/12/21 07:39:36;;;;;;;24.42;12.98;;;;;;;3.68;76.12;100880.94;5004066;28;20041;-55
2020/12/21 07:42:05;;;;;;;28.58;13.00;;;;;;;3.46;76.38;100874.25;5001786;28;20140;-53
2020/12/21 07:44:36;;;;;;;23.77;13.37;;;;;;;3.37;76.60;100871.69;4986279;28;20406;-53
2020/12/21 07:47:15;;;;;;;26.35;13.90;;;;;;;3.49;77.14;100876.59;5008579;28;20398;-54
2020/12/21 07:49:44;;;;;;;26.57;14.27;;;;;;;3.50;76.55;100880.13;5002685;28;20395;-56
2020/12/21 07:52:14;;;;;;;24.42;12.93;;;;;;;3.45;76.68;100877.09;4990314;28;20053;-53
2020/12/21 07:54:43;;;;;;;24.50;13.40;;;;;;;3.54;76.95;100878.81;4992084;28;20048;-53
2020/12/21 07:57:10;;;;;;;25.88;14.43;;;;;;;3.59;76.56;100881.84;4991842;28;20052;-53
2020/12/21 07:59:35;;;;;;;25.85;14.30;;;;;;;3.70;76.35;100886.94;4993875;28;20053;-53
2020/12/21 08:02:03;;;;;;;22.58;12.40;;;;;;;3.75;75.87;100883.78;5009206;28;20051;-53
2020/12/21 08:04:29;;;;;;;24.20;13.50;;;;;;;3.68;76.39;100888.94;4991870;28;20053;-54
2020/12/21 08:07:05;;;;;;;25.25;12.88;;;;;;;3.68;75.72;100886.28;5004448;28;20107;-53
2020/12/21 08:09:37;;;;;;;25.52;13.05;;;;;;;3.69;76.41;100879.94;4983898;28;20030;-53
2020/12/21 08:12:12;;;;;;;25.23;13.27;;;;;;;3.63;76.13;100883.22;4993264;28;20663;-54
2020/12/21 08:14:38;;;;;;;24.92;13.18;;;;;;;3.59;76.77;100881.84;5006873;28;20048;-52
2020/12/21 08:17:18;;;;;;;25.00;13.75;;;;;;;3.70;76.02;100886.94;5005075;28;20037;-54
2020/12/21 08:19:51;;;;;;;27.38;13.32;;;;;;;3.63;75.90;100886.75;5003192;28;20064;-53
2020/12/21 08:22:23;;;;;;;27.10;13.73;;;;;;;3.64;76.37;100888.41;4990707;28;20049;-53
2020/12/21 08:25:09;;;;;;;27.50;13.90;;;;;;;3.62;76.32;100884.22;5007767;28;20041;-54
2020/12/21 08:27:35;;;;;;;28.45;14.50;;;;;;;3.57;76.41;100886.53;5002948;28;20034;-54
2020/12/21 08:30:21;;;;;;;32.88;15.45;;;;;;;3.63;76.65;100884.06;5006694;28;20042;-53
2020/12/21 08:32:47;;;;;;;26.73;15.98;;;;;;;3.63;76.25;100868.03;5010355;28;20491;-53
2020/12/21 08:35:12;;;;;;;32.25;15.13;;;;;;;3.55;77.19;100872.47;5001301;28;20092;-53
2020/12/21 08:37:39;;;;;;;27.25;13.82;;;;;;;3.61;77.03;100869.16;4975128;28;20049;-53
2020/12/21 08:40:15;;;;;;;26.10;14.98;;;;;;;3.76;76.13;100872.09;4972494;28;20042;-53
2020/12/21 08:42:43;;;;;;;32.45;14.60;;;;;;;3.70;76.13;100867.38;5006885;28;20321;-51
2020/12/21 08:45:09;;;;;;;26.58;15.48;;;;;;;3.55;77.12;100880.50;5008837;28;20045;-53
2020/12/21 08:47:39;;;;;;;25.75;14.43;;;;;;;3.51;76.99;100879.13;5008774;28;20494;-54
2020/12/21 08:50:05;;;;;;;31.42;15.77;;;;;;;3.52;77.50;100886.16;5010034;28;20045;-53
2020/12/21 08:52:32;;;;;;;30.40;15.30;;;;;;;3.57;77.22;100881.19;5006806;28;20037;-54
2020/12/21 08:54:57;;;;;;;29.63;14.18;;;;;;;3.62;77.13;100892.25;5006347;28;20136;-52
2020/12/21 08:57:23;;;;;;;31.55;15.68;;;;;;;3.82;76.21;100884.81;5006097;28;20125;-53
2020/12/21 08:59:48;;;;;;;28.60;14.38;;;;;;;3.94;75.88;100896.94;5003254;28;20092;-53
2020/12/21 09:02:14;;;;;;;23.90;13.45;;;;;;;4.15;75.68;100896.56;5005675;28;20054;-53
2020/12/21 09:04:40;;;;;;;30.45;14.45;;;;;;;4.05;75.73;100893.13;4987790;28;20041;-54
2020/12/21 09:07:06;;;;;;;26.15;13.75;;;;;;;4.10;75.39;100897.03;4991215;28;20041;-54
2020/12/21 09:09:32;;;;;;;27.90;15.63;;;;;;;4.16;75.41;100891.00;4990208;28;20041;-53
2020/12/21 09:11:57;;;;;;;29.23;15.43;;;;;;;4.15;75.07;100881.34;5008411;28;20034;-54
2020/12/21 09:14:24;;;;;;;28.25;14.88;;;;;;;4.21;74.92;100885.19;5008974;28;20067;-53
2020/12/21 09:16:53;;;;;;;24.65;13.57;;;;;;;4.29;75.59;100879.84;5007217;28;20045;-53
2020/12/21 09:19:19;;;;;;;28.80;14.52;;;;;;;4.26;74.85;100882.88;4989933;28;20108;-53
2020/12/21 09:21:45;;;;;;;22.98;11.85;;;;;;;4.16;75.00;100887.50;5003267;28;20033;-53
2020/12/21 09:24:11;;;;;;;25.90;12.85;;;;;;;4.32;76.65;100879.53;4991047;28;20041;-53
2020/12/21 09:26:36;;;;;;;25.92;14.70;;;;;;;4.08;74.87;100884.78;5008964;28;20072;-54
2020/12/21 09:29:03;;;;;;;26.90;14.63;;;;;;;4.05;75.45;100885.09;5005724;28;20117;-54
2020/12/21 09:31:29;;;;;;;28.85;14.05;;;;;;;4.08;75.23;100882.13;5026038;28;20041;-54
2020/12/21 09:33:55;;;;;;;22.73;12.60;;;;;;;4.05;75.72;100882.44;5008732;28;20505;-52
2020/12/21 09:36:22;;;;;;;23.30;11.88;;;;;;;4.15;75.94;100869.78;4984232;28;20120;-54
2020/12/21 09:38:49;;;;;;;33.40;14.88;;;;;;;4.14;74.67;100865.44;4985524;28;20310;-52
2020/12/21 09:41:17;;;;;;;24.58;13.35;;;;;;;4.47;74.00;100861.88;4973768;28;20050;-54
2020/12/21 09:43:44;;;;;;;27.85;12.60;;;;;;;4.29;74.73;100861.97;4980458;28;20108;-54
2020/12/21 09:46:17;;;;;;;26.80;14.48;;;;;;;4.28;74.11;100870.16;4970632;28;20097;-53
2020/12/21 09:48:42;;;;;;;26.70;13.98;;;;;;;4.27;74.11;100873.81;4978711;28;20398;-54
2020/12/21 09:51:10;;;;;;;27.23;14.18;;;;;;;4.35;74.34;100874.72;5008155;28;20049;-53
2020/12/21 09:53:36;;;;;;;25.85;14.25;;;;;;;4.75;75.87;100857.03;5008120;28;20037;-53
2020/12/21 09:56:01;;;;;;;27.25;13.63;;;;;;;4.80;72.82;100865.44;5007443;28;20406;-53
2020/12/21 09:58:27;;;;;;;30.48;14.88;;;;;;;4.77;74.06;100867.59;5007709;28;20175;-55
2020/12/21 10:00:52;;;;;;;24.63;13.38;;;;;;;4.67;72.52;100863.25;4992384;28;20041;-53
2020/12/21 10:03:18;;;;;;;25.38;13.50;;;;;;;4.64;73.34;100858.19;5006129;28;20071;-53
2020/12/21 10:05:43;;;;;;;24.67;12.90;;;;;;;4.72;72.11;100857.41;4972580;28;20033;-54
2020/12/21 10:08:09;;;;;;;24.48;13.75;;;;;;;4.61;72.63;100860.41;5008648;28;20286;-53
2020/12/21 10:10:34;;;;;;;31.13;15.02;;;;;;;4.64;72.32;100849.31;5022894;28;20131;-53
2020/12/21 10:13:01;;;;;;;26.92;13.00;;;;;;;4.51;72.92;100852.47;5007669;28;20034;-53
2020/12/21 10:15:26;;;;;;;24.73;13.43;;;;;;;4.46;73.07;100849.47;4993165;28;20502;-53
2020/12/21 10:17:51;;;;;;;22.15;11.63;;;;;;;4.64;72.53;100846.66;5008684;28;20041;-53
2020/12/21 10:20:17;;;;;;;24.77;12.77;;;;;;;4.70;72.60;100846.00;4990822;28;20115;-54
2020/12/21 10:22:42;;;;;;;25.75;13.27;;;;;;;4.59;72.11;100846.31;4991871;28;20041;-53
2020/12/21 10:25:08;;;;;;;26.20;14.88;;;;;;;4.63;72.67;100845.81;5002983;28;20104;-54
2020/12/21 10:27:33;;;;;;;27.13;14.00;;;;;;;4.73;72.42;100840.28;4971747;28;20454;-53
2020/12/21 10:30:00;;;;;;;28.90;13.95;;;;;;;5.01;73.78;100833.63;4985852;28;20392;-52
2020/12/21 10:32:26;;;;;;;23.50;12.25;;;;;;;5.03;73.30;100838.81;4984970;28;20138;-53
2020/12/21 10:34:51;;;;;;;27.38;13.98;;;;;;;5.10;71.24;100829.09;4988129;28;20046;-52
2020/12/21 10:37:16;;;;;;;27.65;13.38;;;;;;;5.06;72.86;100838.50;4992391;28;20049;-53
2020/12/21 10:39:42;;;;;;;26.63;13.57;;;;;;;5.02;71.51;100837.16;4992388;28;20045;-54
2020/12/21 10:42:07;;;;;;;22.02;12.00;;;;;;;5.06;71.38;100838.50;5005815;28;20049;-53
2020/12/21 10:44:33;;;;;;;24.60;11.88;;;;;;;5.26;71.18;100825.56;4990644;28;20041;-55
2020/12/21 10:46:59;;;;;;;26.58;11.80;;;;;;;5.37;70.90;100822.53;4992336;28;20040;-54
2020/12/21 10:49:25;;;;;;;22.85;12.77;;;;;;;5.47;70.88;100823.19;4992501;28;20033;-54
2020/12/21 10:51:51;;;;;;;23.23;12.07;;;;;;;5.61;70.25;100810.91;4989611;28;20622;-53
2020/12/21 10:54:18;;;;;;;26.10;13.43;;;;;;;5.72;70.73;100814.06;5005573;28;21637;-54
2020/12/21 10:56:44;;;;;;;29.85;13.52;;;;;;;5.65;70.83;100826.50;5006207;28;20052;-54
2020/12/21 10:59:10;;;;;;;23.88;11.55;;;;;;;5.54;69.98;100818.81;5006521;28;20050;-53
2020/12/21 11:01:36;;;;;;;24.52;12.90;;;;;;;5.56;69.95;100824.00;4979812;28;20038;-54
2020/12/21 11:04:02;;;;;;;26.60;14.02;;;;;;;5.49;70.27;100821.19;4989005;28;20045;-54
2020/12/21 11:06:27;;;;;;;24.15;13.70;;;;;;;5.24;70.92;100815.00;4972806;28;20041;-53
2020/12/21 11:08:54;;;;;;;39.78;18.83;;;;;;;5.21;71.97;100811.81;4976712;28;20042;-55
2020/12/21 11:11:28;;;;;;;24.67;13.63;;;;;;;5.36;71.35;100810.97;4989092;28;20056;-54
2020/12/21 11:13:55;;;;;;;27.30;15.27;;;;;;;5.50;72.06;100804.09;4971864;28;20555;-53
2020/12/21 11:16:21;;;;;;;20.98;11.70;;;;;;;5.42;70.40;100804.91;4987732;28;20220;-53
2020/12/21 11:18:47;;;;;;;24.70;12.25;;;;;;;5.54;70.68;100801.91;4967358;28;20066;-54
2020/12/21 11:21:13;;;;;;;21.65;12.05;;;;;;;5.55;70.42;100795.50;4982856;28;20120;-53
2020/12/21 11:23:40;;;;;;;20.95;11.13;;;;;;;6.08;75.12;100797.53;4985509;28;20127;-52
2020/12/21 11:26:08;;;;;;;24.30;11.68;;;;;;;5.67;69.80;100796.81;4976104;28;20502;-53
2020/12/21 11:28:34;;;;;;;20.88;10.65;;;;;;;5.60;70.97;100785.09;4992376;28;20116;-56
2020/12/21 11:31:00;;;;;;;24.25;12.13;;;;;;;5.65;70.10;100775.53;4974342;28;20128;-56
2020/12/21 11:33:25;;;;;;;19.45;11.60;;;;;;;5.44;70.31;100777.94;4995662;28;20499;-53
2020/12/21 11:35:51;;;;;;;24.30;13.52;;;;;;;5.35;70.50;100787.00;4975472;28;20045;-54
2020/12/21 11:38:16;;;;;;;24.02;13.05;;;;;;;5.27;70.87;100779.84;4986000;28;20057;-54
2020/12/21 11:40:43;;;;;;;20.10;10.98;;;;;;;5.43;70.62;100778.94;4992194;28;20034;-54
2020/12/21 11:43:08;;;;;;;24.33;12.38;;;;;;;5.40;70.32;100779.31;4991739;28;20137;-53
2020/12/21 11:45:34;;;;;;;23.23;11.38;;;;;;;5.34;70.74;100774.63;4990537;28;20120;-53
2020/12/21 11:47:59;;;;;;;19.33;10.60;;;;;;;5.32;70.60;100765.91;4972256;28;20415;-54
2020/12/21 11:50:25;;;;;;;24.02;13.10;;;;;;;5.36;72.08;100762.72;5008378;28;20034;-53
2020/12/21 11:52:50;;;;;;;23.42;11.55;;;;;;;5.51;70.72;100770.91;5007635;28;20091;-54
2020/12/21 11:55:16;;;;;;;26.42;12.48;;;;;;;5.59;72.85;100767.34;4985307;28;20048;-53
2020/12/21 11:57:42;;;;;;;26.65;14.13;;;;;;;5.35;71.58;100753.00;4991589;28;20060;-54
2020/12/21 12:00:08;;;;;;;22.00;11.43;;;;;;;5.36;72.14;100761.88;4973694;28;20526;-53
2020/12/21 12:02:33;;;;;;;28.13;13.15;;;;;;;5.47;73.52;100746.25;4975158;28;20403;-53
2020/12/21 12:04:59;;;;;;;26.92;13.20;;;;;;;5.67;71.01;100748.53;4987778;28;20487;-53
2020/12/21 12:07:24;;;;;;;24.15;12.18;;;;;;;5.37;70.44;100747.47;4995132;28;20116;-53
2020/12/21 12:09:50;;;;;;;26.55;13.02;;;;;;;5.37;70.45;100753.66;4986811;28;20501;-54
2020/12/21 12:12:15;;;;;;;20.92;12.55;;;;;;;5.50;70.10;100742.41;4970240;28;20053;-53
2020/12/21 12:14:42;;;;;;;22.58;11.32;;;;;;;5.47;72.38;100746.25;4983464;28;20142;-53
2020/12/21 12:17:08;;;;;;;23.88;12.07;;;;;;;5.21;70.98;100748.34;4990791;28;20119;-53
2020/12/21 12:19:33;;;;;;;28.33;13.70;;;;;;;4.96;71.24;100749.41;5008183;28;20037;-52
2020/12/21 12:21:59;;;;;;;22.17;11.40;;;;;;;4.95;72.12;100745.06;4985263;28;20049;-53
2020/12/21 12:24:24;;;;;;;23.08;11.85;;;;;;;5.08;71.62;100746.19;4987189;28;20037;-53
2020/12/21 12:26:57;;;;;;;26.05;12.05;;;;;;;4.90;71.47;100748.22;5010612;28;20044;-53
2020/12/21 12:29:30;;;;;;;21.85;12.30;;;;;;;4.92;72.04;100748.91;5008839;28;20065;-53
2020/12/21 12:31:56;;;;;;;25.88;13.77;;;;;;;5.26;72.13;100746.00;5006993;28;20115;-53
2020/12/21 12:34:22;;;;;;;24.23;12.60;;;;;;;4.89;72.15;100743.03;5011303;28;20490;-54
2020/12/21 12:36:48;;;;;;;24.52;12.50;;;;;;;4.85;72.55;100747.03;5010798;28;20040;-53
2020/12/21 12:39:13;;;;;;;24.00;11.77;;;;;;;4.91;72.39;100743.72;4993801;28;20099;-54
2020/12/21 12:41:40;;;;;;;24.15;12.07;;;;;;;4.58;72.94;100742.88;4993126;28;20033;-53
2020/12/21 12:44:06;;;;;;;22.63;11.27;;;;;;;4.56;72.67;100747.56;4993651;28;20502;-54
2020/12/21 12:46:32;;;;;;;26.40;12.60;;;;;;;4.53;73.01;100750.56;5010613;28;20108;-53
2020/12/21 12:48:57;;;;;;;24.85;11.90;;;;;;;4.47;73.19;100749.41;5010302;28;20552;-54
2020/12/21 12:51:24;;;;;;;19.08;11.00;;;;;;;4.38;73.17;100744.22;5007098;28;20049;-53
2020/12/21 12:53:50;;;;;;;24.55;12.63;;;;;;;4.41;73.96;100735.84;5007185;28;20075;-54
2020/12/21 12:56:17;;;;;;;23.17;12.35;;;;;;;4.40;73.56;100742.19;5006886;28;20045;-53
2020/12/21 12:58:42;;;;;;;24.00;12.38;;;;;;;4.38;73.47;100733.50;5008365;28;20045;-52
2020/12/21 13:01:08;;;;;;;21.60;10.80;;;;;;;4.34;73.82;100736.50;5009989;28;20225;-53
2020/12/21 13:03:34;;;;;;;22.85;12.35;;;;;;;4.29;73.65;100735.31;4991947;28;20064;-53
2020/12/21 13:06:01;;;;;;;23.00;12.90;;;;;;;4.33;73.46;100721.44;5008409;28;20044;-53
2020/12/21 13:08:28;;;;;;;21.90;12.32;;;;;;;4.51;73.21;100728.47;4993178;28;20429;-53
2020/12/21 13:10:56;;;;;;;21.10;10.88;;;;;;;4.49;73.23;100723.31;5009080;28;20120;-52
2020/12/21 13:13:22;;;;;;;24.58;11.10;;;;;;;4.59;73.87;100731.19;5008773;28;20072;-53
2020/12/21 13:15:47;;;;;;;23.17;11.93;;;;;;;4.59;73.23;100734.69;5008199;28;20131;-52
2020/12/21 13:18:14;;;;;;;23.63;11.50;;;;;;;4.62;72.84;100728.97;5009390;28;20461;-54
2020/12/21 13:20:40;;;;;;;22.55;11.13;;;;;;;4.48;73.31;100723.47;5026394;28;20039;-53
2020/12/21 13:23:06;;;;;;;21.20;11.45;;;;;;;4.28;74.17;100722.94;5006110;28;20057;-54
2020/12/21 13:25:31;;;;;;;20.17;10.88;;;;;;;4.40;73.80;100718.09;5009030;28;20041;-52
2020/12/21 13:27:57;;;;;;;23.10;11.38;;;;;;;4.24;74.39;100714.44;5007685;28;20053;-54
2020/12/21 13:30:22;;;;;;;19.80;10.52;;;;;;;4.20;74.19;100710.41;4992421;28;20463;-54
2020/12/21 13:33:44;;;;;;;23.20;10.57;;;;;;;4.15;74.89;100720.78;4997074;28;20033;-55
2020/12/21 13:36:15;;;;;;;20.23;9.93;;;;;;;4.08;75.05;100710.88;4987034;28;20045;-54
2020/12/21 13:38:41;;;;;;;18.25;10.57;;;;;;;4.10;74.91;100714.22;4990653;28;20046;-54
2020/12/21 13:41:07;;;;;;;19.75;10.90;;;;;;;4.00;75.66;100709.88;4968787;28;20115;-55
2020/12/21 13:43:33;;;;;;;24.45;12.50;;;;;;;4.02;75.50;100719.56;4974473;28;20053;-54
2020/12/21 13:45:59;;;;;;;18.52;10.75;;;;;;;4.03;75.44;100723.94;4951309;28;20052;-55
2020/12/21 13:48:24;;;;;;;22.58;12.00;;;;;;;3.96;75.94;100721.06;4949940;28;20046;-54
2020/12/21 13:50:50;;;;;;;21.10;11.27;;;;;;;4.04;76.04;100720.25;4980914;28;20119;-52
2020/12/21 13:53:15;;;;;;;28.38;13.23;;;;;;;3.99;76.18;100723.41;5001287;28;20041;-54
2020/12/21 13:55:41;;;;;;;18.63;10.50;;;;;;;4.04;76.13;100712.22;5004614;28;20037;-53
2020/12/21 13:58:07;;;;;;;27.40;12.88;;;;;;;4.08;77.24;100716.22;5023532;28;20091;-55
2020/12/21 14:00:33;;;;;;;26.55;13.35;;;;;;;4.12;75.41;100723.78;4988681;28;20069;-51
2020/12/21 14:02:58;;;;;;;27.63;13.75;;;;;;;4.04;75.91;100720.25;5006514;28;20073;-53
2020/12/21 14:05:23;;;;;;;25.58;12.80;;;;;;;3.95;76.75;100720.22;5006008;28;20045;-55
2020/12/21 14:07:49;;;;;;;25.40;13.15;;;;;;;4.18;76.39;100728.44;5001515;28;20074;-53
2020/12/21 14:10:16;;;;;;;26.27;13.02;;;;;;;4.07;76.11;100720.75;4986613;28;20064;-53
2020/12/21 14:12:42;;;;;;;25.45;13.52;;;;;;;4.02;76.17;100712.38;4987425;28;20030;-53
2020/12/21 14:15:07;;;;;;;25.52;14.10;;;;;;;3.88;77.27;100713.84;4984488;28;20218;-55
2020/12/21 14:17:33;;;;;;;31.67;13.70;;;;;;;4.63;78.45;100719.94;4964711;28;20042;-56
2020/12/21 14:19:59;;;;;;;26.85;14.18;;;;;;;3.94;76.50;100723.88;4981330;28;20689;-53
2020/12/21 14:22:25;;;;;;;28.35;13.85;;;;;;;3.80;76.75;100724.53;4967024;28;20105;-52
2020/12/21 14:24:50;;;;;;;26.85;14.02;;;;;;;3.75;76.89;100734.88;4963087;28;20094;-52
2020/12/21 14:27:16;;;;;;;23.13;12.73;;;;;;;3.67;77.43;100726.84;4967374;28;20523;-54
2020/12/21 14:29:41;;;;;;;27.38;12.80;;;;;;;3.78;77.66;100717.69;4965891;28;20117;-51
2020/12/21 14:32:07;;;;;;;24.90;13.27;;;;;;;3.63;77.87;100723.63;4967793;28;20126;-53
2020/12/21 14:34:32;;;;;;;24.00;14.10;;;;;;;3.87;79.74;100714.00;4965836;28;20109;-51
2020/12/21 14:37:03;;;;;;;27.27;13.25;;;;;;;3.59;77.40;100718.75;4968115;28;20493;-57
2020/12/21 14:39:29;;;;;;;23.15;11.55;;;;;;;3.58;78.14;100711.72;4990805;28;20073;-53
2020/12/21 14:41:55;;;;;;;26.70;13.25;;;;;;;3.45;78.22;100714.88;4972245;28;20050;-52
2020/12/21 14:44:21;;;;;;;27.35;13.82;;;;;;;3.57;78.28;100705.56;4981539;28;20510;-56
2020/12/21 14:46:46;;;;;;;31.38;14.73;;;;;;;3.46;78.18;100710.38;4951615;28;20125;-53
2020/12/21 14:49:12;;;;;;;26.08;14.48;;;;;;;3.41;78.72;100708.19;4979789;28;20046;-52
2020/12/21 14:51:37;;;;;;;26.90;13.80;;;;;;;3.39;78.78;100722.69;5002473;28;20044;-53
2020/12/21 14:54:08;;;;;;;24.92;14.50;;;;;;;3.43;79.00;100706.19;5004741;28;20041;-56
2020/12/21 14:56:34;;;;;;;23.52;12.85;;;;;;;3.35;79.11;100700.78;4998477;28;20471;-52
2020/12/21 14:59:03;;;;;;;24.75;12.55;;;;;;;3.32;79.13;100700.28;4968533;28;20100;-53
2020/12/21 15:01:29;;;;;;;25.67;13.68;;;;;;;3.35;79.48;100699.94;4975096;28;20038;-54
2020/12/21 15:03:55;;;;;;;25.27;15.07;;;;;;;3.34;79.46;100700.97;4994889;28;20457;-53
2020/12/21 15:06:21;;;;;;;21.50;11.75;;;;;;;3.33;78.93;100700.13;5009110;28;20037;-56
2020/12/21 15:08:46;;;;;;;28.75;13.60;;;;;;;3.36;79.00;100709.63;5003568;28;20037;-55
2020/12/21 15:11:13;;;;;;;24.60;12.00;;;;;;;3.34;79.57;100709.00;5009292;28;20239;-55
2020/12/21 15:13:40;;;;;;;24.20;12.88;;;;;;;3.37;78.78;100703.31;5006691;28;20037;-56
2020/12/21 15:16:10;;;;;;;23.95;12.10;;;;;;;3.38;79.45;100703.16;4993661;28;20049;-52
2020/12/21 15:18:36;;;;;;;20.50;11.60;;;;;;;3.38;79.06;100694.28;5010367;28;20091;-52
2020/12/21 15:21:04;;;;;;;21.80;11.18;;;;;;;3.46;78.60;100692.47;4992065;28;20045;-52
2020/12/21 15:23:30;;;;;;;21.60;10.13;;;;;;;3.40;78.74;100690.47;4993262;28;20049;-53
2020/12/21 15:25:56;;;;;;;22.98;10.20;;;;;;;3.56;78.77;100687.03;5007246;28;20058;-52
2020/12/21 15:28:23;;;;;;;21.58;9.93;;;;;;;3.49;78.49;100694.84;4990696;28;20137;-54
2020/12/21 15:30:50;;;;;;;23.38;9.80;;;;;;;3.48;78.91;100686.97;5001793;28;20045;-54
2020/12/21 15:33:16;;;;;;;17.27;9.68;;;;;;;3.46;78.62;100689.00;5008785;28;20514;-53
2020/12/21 15:35:43;;;;;;;18.20;10.02;;;;;;;3.45;78.58;100676.63;5008675;28;20420;-54
2020/12/21 15:38:09;;;;;;;19.52;9.60;;;;;;;3.46;78.98;100686.31;4989972;28;20511;-54
2020/12/21 15:40:34;;;;;;;18.52;10.73;;;;;;;3.41;79.32;100686.78;4973121;28;20383;-53
2020/12/21 15:42:59;;;;;;;23.13;10.32;;;;;;;3.53;79.42;100680.16;4973691;28;20042;-54
2020/12/21 15:45:25;;;;;;;20.20;10.75;;;;;;;3.54;78.91;100671.13;4992699;28;20052;-53
2020/12/21 15:47:52;;;;;;;21.95;11.98;;;;;;;3.57;79.38;100670.00;4989998;28;20483;-53
2020/12/21 15:50:18;;;;;;;23.20;10.98;;;;;;;3.53;79.66;100664.13;5009296;28;20099;-54
2020/12/21 15:52:49;;;;;;;20.15;11.40;;;;;;;3.60;79.24;100667.81;5010070;28;20545;-53
2020/12/21 15:55:18;;;;;;;22.00;11.73;;;;;;;3.62;79.27;100656.94;5008063;28;20055;-54
2020/12/21 15:57:44;;;;;;;22.58;11.80;;;;;;;3.63;79.67;100662.13;5007359;28;20037;-53
2020/12/21 16:00:10;;;;;;;26.90;13.63;;;;;;;3.67;79.82;100651.97;5007636;28;20056;-53
2020/12/21 16:02:35;;;;;;;24.65;11.75;;;;;;;3.63;79.97;100651.44;5007756;28;20136;-54
2020/12/21 16:05:01;;;;;;;23.02;11.43;;;;;;;3.66;79.63;100647.63;5008443;28;20039;-53
2020/12/21 16:07:28;;;;;;;26.80;13.98;;;;;;;3.69;79.52;100641.94;5009285;28;20045;-54
2020/12/21 16:09:55;;;;;;;27.90;14.55;;;;;;;3.70;79.51;100642.75;5005683;28;20034;-53
2020/12/21 16:12:22;;;;;;;25.80;14.48;;;;;;;3.69;79.64;100630.41;4990145;28;20033;-53
2020/12/21 16:14:49;;;;;;;26.17;13.98;;;;;;;3.67;79.82;100638.59;5007619;28;20033;-54
2020/12/21 16:17:15;;;;;;;27.92;13.77;;;;;;;3.70;80.23;100646.25;5007161;28;20041;-53
2020/12/21 16:19:40;;;;;;;32.45;16.02;;;;;;;3.76;80.22;100631.41;5005759;28;20048;-54